Home > Products > Valid Products > TAF

000
FTUS42 KTBW 300525
TAFFMY
TAF
KFMY 300525Z 3006/3106 06005KT P6SM FEW010 BKN200
     FM301400 11009KT P6SM FEW020 SCT050 BKN200
     FM301600 11010KT P6SM VCTS SCT020CB BKN050
      TEMPO 3016/3020 3SM SHRA BKN020
     FM302000 11009KT P6SM VCTS SCT020CB BKN050
      TEMPO 3020/3024 3SM SHRA BKN020
     FM310100 11006KT P6SM VCSH SCT020 BKN050=



000
FTUS42 KTBW 300525
TAFPIE
TAF
KPIE 300525Z 3006/3106 09006KT P6SM FEW010 BKN200
     FM301400 12007KT P6SM FEW020 SCT050 BKN200
     FM301600 12006KT P6SM VCTS SCT020CB BKN050
      TEMPO 3016/3020 3SM SHRA BKN020
     FM302000 09006KT P6SM VCTS SCT020CB BKN050
      TEMPO 3020/3024 3SM SHRA BKN020
     FM310100 11008KT P6SM VCSH SCT020 BKN050=



000
FTUS42 KTBW 300525
TAFTPA
TAF
KTPA 300525Z 3006/3106 08004KT P6SM FEW010 BKN200
     FM301400 12005KT P6SM FEW020 SCT050 BKN200
     FM301600 14006KT P6SM VCTS SCT020CB BKN050
      TEMPO 3016/3020 3SM SHRA BKN020
     FM302000 09006KT P6SM VCTS SCT020CB BKN050
      TEMPO 3020/3024 3SM SHRA BKN020
     FM310100 11005KT P6SM VCSH SCT020 BKN050=



000
FTUS42 KTBW 300525
TAFRSW
TAF
KRSW 300525Z 3006/3106 06005KT P6SM FEW010 BKN200
     FM301400 11009KT P6SM FEW020 SCT050 BKN200
     FM301600 11010KT P6SM VCTS SCT020CB BKN050
      TEMPO 3016/3020 3SM SHRA BKN020
     FM302000 11009KT P6SM VCTS SCT020CB BKN050
      TEMPO 3020/3024 3SM SHRA BKN020
     FM310100 11006KT P6SM VCSH SCT020 BKN050=



000
FTUS42 KTBW 300525
TAFSRQ
TAF
KSRQ 300525Z 3006/3106 07005KT P6SM FEW010 BKN200
     FM301400 11007KT P6SM FEW020 SCT050 BKN200
     FM301600 11007KT P6SM VCTS SCT020CB BKN050
      TEMPO 3016/3020 3SM SHRA BKN020
     FM302000 09008KT P6SM VCTS SCT020CB BKN050
      TEMPO 3020/3024 3SM SHRA BKN020
     FM310100 11007KT P6SM VCSH SCT020 BKN050=



000
FTUS42 KTBW 300312 AAA
TAFSRQ
TAF AMD
KSRQ 300312Z 3003/3024 08011KT P6SM FEW010 BKN200
     FM300600 08006KT P6SM FEW010 BKN200
     FM301600 12012KT 6SM SHRA VCTS SCT018CB BKN040=



000
FTUS42 KTBW 300311 AAB
TAFFMY
TAF AMD
KFMY 300311Z 3003/3024 06012KT P6SM FEW030 BKN200
     FM300600 06007KT P6SM FEW020 BKN200
     FM301500 12012G18KT 6SM SHRA VCTS SCT018CB BKN040=



000
FTUS42 KTBW 300311 AAB
TAFRSW
TAF AMD
KRSW 300311Z 3003/3024 06012KT P6SM FEW030 BKN200
     FM300600 06007KT P6SM FEW020 BKN200
     FM301500 12012G18KT 6SM SHRA VCTS SCT018CB BKN040=



000
FTUS42 KTBW 300307 AAA
TAFPIE
TAF AMD
KPIE 300307Z 3003/3024 11012G18KT P6SM FEW020 BKN200
     FM300600 11008KT P6SM FEW020 BKN200
     FM301600 12010KT 6SM SHRA VCTS SCT018CB BKN040=



000
FTUS42 KTBW 300306 AAA
TAFTPA
TAF AMD
KTPA 300306Z 3003/3024 09006KT P6SM FEW020 BKN200
     FM301600 12008KT 6SM SHRA VCTS SCT018CB BKN040=



000
FTUS42 KTBW 300010 AAA
TAFRSW
TAF AMD
KRSW 300010Z 3000/3024 VRB06KT P6SM VCSH SCT025 SCT120 BKN250
      TEMPO 3000/3002 VRB10KT 4SM SHRA BKN025
     FM300300 VRB05KT P6SM FEW025 BKN250
     FM301500 12012G18KT 6SM SHRA VCTS SCT018CB BKN040=



000
FTUS42 KTBW 300010 AAA
TAFFMY
TAF AMD
KFMY 300010Z 3000/3024 VRB06KT P6SM VCSH SCT025 SCT120 BKN250
      TEMPO 3000/3002 VRB10KT 4SM SHRA BKN025
     FM300300 VRB05KT P6SM FEW025 BKN250
     FM301500 12012G18KT 6SM SHRA VCTS SCT018CB BKN040=



000
FTUS42 KTBW 300010 AAA
TAFRSW
TAF AMD
KRSW 300010Z 3000/3024 VRB06KT P6SM VCSH SCT025 SCT120 BKN250
      TEMPO 3000/3002 VRB10KT 4SM SHRA BKN025
     FM300300 VRB05KT P6SM FEW025 BKN250
     FM301500 12012G18KT 6SM SHRA VCTS SCT018CB BKN040=



000
FTUS42 KTBW 300010 AAA
TAFFMY
TAF AMD
KFMY 300010Z 3000/3024 VRB06KT P6SM VCSH SCT025 SCT120 BKN250
      TEMPO 3000/3002 VRB10KT 4SM SHRA BKN025
     FM300300 VRB05KT P6SM FEW025 BKN250
     FM301500 12012G18KT 6SM SHRA VCTS SCT018CB BKN040=



000
FTUS42 KTBW 292334
TAFPIE
TAF
KPIE 292334Z 3000/3024 VRB06KT P6SM VCTS SCT035CB SCT120 BKN250
      TEMPO 3001/3003 VRB15G25KT 3SM TSRA BKN025CB
     FM300300 VRB05KT P6SM FEW025 BKN250
     FM301600 12010KT 6SM SHRA VCTS SCT018CB BKN040=



000
FTUS42 KTBW 292334
TAFTPA
TAF
KTPA 292334Z 3000/3024 VRB06KT P6SM VCTS SCT035CB SCT120 BKN250
      TEMPO 3001/3003 VRB15G25KT 3SM TSRA BKN025CB
     FM300300 VRB03KT P6SM FEW025 BKN250
     FM301600 12008KT 6SM SHRA VCTS SCT018CB BKN040=



000
FTUS42 KTBW 292334
TAFSRQ
TAF
KSRQ 292334Z 3000/3024 VRB06KT P6SM VCTS SCT035CB SCT120 BKN250
      TEMPO 3000/3002 VRB15G25KT 3SM TSRA BKN025CB
     FM300300 VRB05KT P6SM FEW025 BKN250
     FM301600 12012KT 6SM SHRA VCTS SCT018CB BKN040=



000
FTUS42 KTBW 292334
TAFFMY
TAF
KFMY 292334Z 3000/3024 VRB06KT P6SM VCSH SCT040 SCT120 BKN250
     FM300300 VRB05KT P6SM FEW025 BKN250
     FM301500 12012G18KT 6SM SHRA VCTS SCT018CB BKN040=



000
FTUS42 KTBW 292334
TAFRSW
TAF
KRSW 292334Z 3000/3024 VRB06KT P6SM VCSH SCT040 SCT120 BKN250
     FM300300 VRB05KT P6SM FEW025 BKN250
     FM301500 12012G18KT 6SM SHRA VCTS SCT018CB BKN040=



000
FTUS42 KTBW 292334
TAFSRQ
TAF
KSRQ 292334Z 3000/3024 VRB06KT P6SM VCTS SCT035CB SCT120 BKN250
      TEMPO 3000/3002 VRB15G25KT 3SM TSRA BKN025CB
     FM300300 VRB05KT P6SM FEW025 BKN250
     FM301600 12012KT 6SM SHRA VCTS SCT018CB BKN040=



000
FTUS42 KTBW 292334
TAFTPA
TAF
KTPA 292334Z 3000/3024 VRB06KT P6SM VCTS SCT035CB SCT120 BKN250
      TEMPO 3001/3003 VRB15G25KT 3SM TSRA BKN025CB
     FM300300 VRB03KT P6SM FEW025 BKN250
     FM301600 12008KT 6SM SHRA VCTS SCT018CB BKN040=



000
FTUS42 KTBW 292334
TAFFMY
TAF
KFMY 292334Z 3000/3024 VRB06KT P6SM VCSH SCT040 SCT120 BKN250
     FM300300 VRB05KT P6SM FEW025 BKN250
     FM301500 12012G18KT 6SM SHRA VCTS SCT018CB BKN040=



000
FTUS42 KTBW 292334
TAFRSW
TAF
KRSW 292334Z 3000/3024 VRB06KT P6SM VCSH SCT040 SCT120 BKN250
     FM300300 VRB05KT P6SM FEW025 BKN250
     FM301500 12012G18KT 6SM SHRA VCTS SCT018CB BKN040=



000
FTUS42 KTBW 292334
TAFPIE
TAF
KPIE 292334Z 3000/3024 VRB06KT P6SM VCTS SCT035CB SCT120 BKN250
      TEMPO 3001/3003 VRB15G25KT 3SM TSRA BKN025CB
     FM300300 VRB05KT P6SM FEW025 BKN250
     FM301600 12010KT 6SM SHRA VCTS SCT018CB BKN040=



000
FTUS42 KTBW 292104 AAB
TAFTPA
TAF AMD
KTPA 292104Z 2921/3018 VRB06KT P6SM VCTS SCT035CB BKN250
      TEMPO 2921/2923 VRB20G30KT 1SM +TSRA BKN020CB
     FM300000 06004KT P6SM VCSH SCT040 SCT120 BKN250
     FM300400 06003KT P6SM FEW025 BKN250
     FM301600 12008KT 6SM SHRA VCTS SCT018CB BKN040=



000
FTUS42 KTBW 292104 AAB
TAFPIE
TAF AMD
KPIE 292104Z 2921/3018 VRB06KT P6SM VCTS SCT025CB BKN250
      TEMPO 2921/2923 VRB20G30KT 2SM +TSRA BKN020CB
     FM300000 06006KT P6SM VCSH SCT040 SCT120 BKN250
     FM300400 06005KT P6SM FEW025 BKN250
     FM301600 12010KT 6SM SHRA VCTS SCT018CB BKN040=



000
FTUS42 KTBW 292104 AAB
TAFPIE
TAF AMD
KPIE 292104Z 2921/3018 VRB06KT P6SM VCTS SCT025CB BKN250
      TEMPO 2921/2923 VRB20G30KT 2SM +TSRA BKN020CB
     FM300000 06006KT P6SM VCSH SCT040 SCT120 BKN250
     FM300400 06005KT P6SM FEW025 BKN250
     FM301600 12010KT 6SM SHRA VCTS SCT018CB BKN040=



000
FTUS42 KTBW 291954 AAA
TAFPIE
TAF AMD
KPIE 291954Z 2920/3018 06006KT P6SM VCTS SCT025CB BKN250
      TEMPO 2920/2923 VRB20G30KT 1SM +TSRA BKN018CB
     FM300000 06006KT P6SM VCSH SCT040 SCT120 BKN250
     FM300400 06005KT P6SM FEW025 BKN250
     FM301600 12010KT 6SM SHRA VCTS SCT018CB BKN040=



000
FTUS42 KTBW 291952 AAA
TAFSRQ
TAF AMD
KSRQ 291952Z 2920/3018 13006KT P6SM VCTS SCT035CB BKN100
      TEMPO 2920/2922 VRB15G25KT 2SM +TSRA BKN025CB
     FM300000 06006KT P6SM SCT040 SCT120 BKN250
     FM300400 06005KT P6SM FEW025 BKN250
     FM301600 12012KT 6SM SHRA VCTS SCT018CB BKN040=



000
FTUS42 KTBW 291951 AAA
TAFRSW
TAF AMD
KRSW 291951Z 2920/3018 10008KT P6SM VCTS SCT035CB BKN080
      TEMPO 2920/2922 VRB15G25KT 2SM +TSRA BKN025CB
     FM300000 06006KT P6SM SCT040 SCT120 BKN250
     FM300400 06005KT P6SM FEW025 BKN250
     FM301500 12012G18KT 6SM SHRA VCTS SCT018CB BKN040=



000
FTUS42 KTBW 291950 AAA
TAFFMY
TAF AMD
KFMY 291950Z 2920/3018 12008KT P6SM VCTS SCT035CB SCT250
      TEMPO 2920/2922 VRB15G25KT 2SM +TSRA BKN025CB
     FM300000 06006KT P6SM SCT040 SCT120 BKN250
     FM300400 06005KT P6SM FEW025 BKN250
     FM301500 12012G18KT 6SM SHRA VCTS SCT018CB BKN040=



000
FTUS42 KTBW 291950 AAA
TAFFMY
TAF AMD
KFMY 291950Z 2920/3018 12008KT P6SM VCTS SCT035CB SCT250
      TEMPO 2920/2922 VRB15G25KT 2SM +TSRA BKN025CB
     FM300000 06006KT P6SM SCT040 SCT120 BKN250
     FM300400 06005KT P6SM FEW025 BKN250
     FM301500 12012G18KT 6SM SHRA VCTS SCT018CB BKN040=



000
FTUS42 KTBW 291949 AAA
TAFTPA
TAF AMD
KTPA 291949Z 2920/3018 27007KT P6SM VCTS SCT035CB BKN250
      TEMPO 2920/2923 VRB20G30KT 1SM +TSRA BKN018CB
     FM300000 06004KT P6SM VCSH SCT040 SCT120 BKN250
     FM300400 06003KT P6SM FEW025 BKN250
     FM301600 12008KT 6SM SHRA VCTS SCT018CB BKN040=



000
FTUS42 KTBW 291949 AAA
TAFTPA
TAF AMD
KTPA 291949Z 2920/3018 27007KT P6SM VCTS SCT035CB BKN250
      TEMPO 2920/2923 VRB20G30KT 1SM +TSRA BKN018CB
     FM300000 06004KT P6SM VCSH SCT040 SCT120 BKN250
     FM300400 06003KT P6SM FEW025 BKN250
     FM301600 12008KT 6SM SHRA VCTS SCT018CB BKN040=



000
FTUS42 KTBW 291733
TAFRSW
TAF
KRSW 291733Z 2918/3018 08010KT P6SM SCT020 SCT250
     FM292000 08008KT P6SM VCTS SCT035CB BKN250
     FM300000 06006KT P6SM SCT040 SCT120 BKN250
     FM300400 06005KT P6SM FEW025 BKN250
     FM301500 12012G18KT 6SM SHRA VCTS SCT018CB BKN040=



000
FTUS42 KTBW 291733
TAFPIE
TAF
KPIE 291733Z 2918/3018 06006KT P6SM VCTS SCT025CB BKN250
     FM292000 30008KT P6SM VCTS SCT040CB BKN120
     FM300000 06006KT P6SM SCT040 SCT120 BKN250
     FM300400 06005KT P6SM FEW025 BKN250
     FM301600 12010KT 6SM SHRA VCTS SCT018CB BKN040=



000
FTUS42 KTBW 291733
TAFSRQ
TAF
KSRQ 291733Z 2918/3018 13006KT P6SM SCT035 BKN250
     FM292000 30008KT P6SM VCTS SCT040CB BKN120
     FM300000 06006KT P6SM SCT040 SCT120 BKN250
     FM300400 06005KT P6SM FEW025 BKN250
     FM301600 12012KT 6SM SHRA VCTS SCT018CB BKN040=



000
FTUS42 KTBW 291733
TAFTPA
TAF
KTPA 291733Z 2918/3018 13006KT P6SM VCTS SCT030CB BKN250
     FM292000 29007KT P6SM VCTS SCT040CB BKN120
     FM300000 06004KT P6SM VCSH SCT040 SCT120 BKN250
     FM300400 06003KT P6SM FEW025 BKN250
     FM301600 12008KT 6SM SHRA VCTS SCT018CB BKN040=



000
FTUS42 KTBW 291733
TAFFMY
TAF
KFMY 291733Z 2918/3018 09008KT P6SM SCT035 SCT250
     FM292000 08008KT P6SM VCTS SCT035CB BKN250
     FM300000 06006KT P6SM SCT040 SCT120 BKN250
     FM300400 06005KT P6SM FEW025 BKN250
     FM301500 12012G18KT 6SM SHRA VCTS SCT018CB BKN040=



000
FTUS42 KTBW 291519 AAA
TAFFMY
TAF AMD
KFMY 291519Z 2915/3012 09006KT P6SM SCT020 SCT250
      TEMPO 2915/2917 BKN020
     FM291700 08008KT P6SM VCTS SCT030CB SCT130 BKN250
     FM292000 06008KT P6SM VCTS BKN040CB
     FM300000 07006KT P6SM SCT040 BKN130=



000
FTUS42 KTBW 291507 AAA
TAFRSW
TAF AMD
KRSW 291507Z 2915/3012 07004KT P6SM SCT020 SCT250
      TEMPO 2915/2917 BKN020
     FM291700 08008KT P6SM VCTS SCT030CB SCT130 BKN250
     FM292000 06008KT P6SM VCTS BKN040CB
     FM300000 07006KT P6SM SCT040 BKN130=



000
FTUS42 KTBW 291505 AAA
TAFTPA
TAF AMD
KTPA 291505Z 2915/3012 08006KT P6SM SCT025 BKN250
     FM291700 22006KT P6SM VCTS SCT035CB SCT130 BKN250
     FM292000 29007KT P6SM VCTS SCT040CB BKN130
     FM300000 06004KT P6SM SCT040 SCT130 BKN200=



000
FTUS42 KTBW 291505 AAA
TAFTPA
TAF AMD
KTPA 291505Z 2915/3012 08006KT P6SM SCT025 BKN250
     FM291700 22006KT P6SM VCTS SCT035CB SCT130 BKN250
     FM292000 29007KT P6SM VCTS SCT040CB BKN130
     FM300000 06004KT P6SM SCT040 SCT130 BKN200=



000
FTUS42 KTBW 291120
TAFPIE
TAF
KPIE 291120Z 2912/3012 10006KT P6SM SCT008 BKN250
     FM291400 11007KT P6SM SCT025 BKN250
     FM291700 05005KT P6SM VCTS SCT035CB SCT130 BKN250
     FM292000 33008KT P6SM VCTS SCT040CB BKN130
     FM300000 06006KT P6SM SCT040 SCT130 BKN200=



000
FTUS42 KTBW 291120
TAFFMY
TAF
KFMY 291120Z 2912/3012 07004KT P6SM FEW010 SCT250
     FM291400 10007KT P6SM SCT025 BKN250
     FM291700 08008KT P6SM VCTS SCT035CB SCT130 BKN250
     FM292000 06008KT P6SM VCTS BKN040CB
     FM300000 07006KT P6SM SCT040 BKN130=



000
FTUS42 KTBW 291120
TAFTPA
TAF
KTPA 291120Z 2912/3012 08004KT P6SM SCT008 BKN250
     FM291400 13005KT P6SM SCT025 BKN250
     FM291700 22006KT P6SM VCTS SCT035CB SCT130 BKN250
     FM292000 29007KT P6SM VCTS SCT040CB BKN130
     FM300000 06004KT P6SM SCT040 SCT130 BKN200=



000
FTUS42 KTBW 291120
TAFSRQ
TAF
KSRQ 291120Z 2912/3012 09005KT P6SM FEW010 BKN250
     FM291400 11007KT P6SM SCT025 BKN250
     FM291700 25007KT P6SM VCTS SCT035CB SCT130 BKN250
     FM292000 30009KT P6SM VCTS SCT040CB BKN130
     FM300000 07006KT P6SM SCT040 SCT130 BKN200=



000
FTUS42 KTBW 291120
TAFTPA
TAF
KTPA 291120Z 2912/3012 08004KT P6SM SCT008 BKN250
     FM291400 13005KT P6SM SCT025 BKN250
     FM291700 22006KT P6SM VCTS SCT035CB SCT130 BKN250
     FM292000 29007KT P6SM VCTS SCT040CB BKN130
     FM300000 06004KT P6SM SCT040 SCT130 BKN200=



000
FTUS42 KTBW 291120
TAFPIE
TAF
KPIE 291120Z 2912/3012 10006KT P6SM SCT008 BKN250
     FM291400 11007KT P6SM SCT025 BKN250
     FM291700 05005KT P6SM VCTS SCT035CB SCT130 BKN250
     FM292000 33008KT P6SM VCTS SCT040CB BKN130
     FM300000 06006KT P6SM SCT040 SCT130 BKN200=



000
FTUS42 KTBW 291120
TAFFMY
TAF
KFMY 291120Z 2912/3012 07004KT P6SM FEW010 SCT250
     FM291400 10007KT P6SM SCT025 BKN250
     FM291700 08008KT P6SM VCTS SCT035CB SCT130 BKN250
     FM292000 06008KT P6SM VCTS BKN040CB
     FM300000 07006KT P6SM SCT040 BKN130=



000
FTUS42 KTBW 291120
TAFSRQ
TAF
KSRQ 291120Z 2912/3012 09005KT P6SM FEW010 BKN250
     FM291400 11007KT P6SM SCT025 BKN250
     FM291700 25007KT P6SM VCTS SCT035CB SCT130 BKN250
     FM292000 30009KT P6SM VCTS SCT040CB BKN130
     FM300000 07006KT P6SM SCT040 SCT130 BKN200=



000
FTUS42 KTBW 291120
TAFRSW
TAF
KRSW 291120Z 2912/3012 07004KT P6SM FEW010 SCT250
     FM291400 10007KT P6SM SCT025 BKN250
     FM291700 08008KT P6SM VCTS SCT035CB SCT130 BKN250
     FM292000 06008KT P6SM VCTS BKN040CB
     FM300000 07006KT P6SM SCT040 BKN130=



000
FTUS42 KTBW 291120
TAFRSW
TAF
KRSW 291120Z 2912/3012 07004KT P6SM FEW010 SCT250
     FM291400 10007KT P6SM SCT025 BKN250
     FM291700 08008KT P6SM VCTS SCT035CB SCT130 BKN250
     FM292000 06008KT P6SM VCTS BKN040CB
     FM300000 07006KT P6SM SCT040 BKN130=



000
FTUS42 KTBW 290928 AAA
TAFPIE
TAF AMD
KPIE 290928Z 2909/3006 10006KT P6SM SCT008 BKN250
     FM291400 11007KT P6SM SCT025 BKN250
     FM291700 05005KT P6SM VCTS SCT035CB SCT130 BKN250
     FM292000 33007KT P6SM VCTS SCT040CB BKN130
     FM300000 06006KT P6SM SCT040 SCT130 BKN250=



000
FTUS42 KTBW 290906 AAA
TAFTPA
TAF AMD
KTPA 290906Z 2909/3006 08004KT P6SM SCT008 BKN250
     FM291400 13005KT P6SM SCT025 BKN250
     FM291700 22006KT P6SM VCTS SCT035CB SCT130 BKN250
     FM292000 29007KT P6SM VCTS SCT040CB BKN130
     FM300000 06004KT P6SM SCT040 SCT130 BKN250=



000
FTUS42 KTBW 290906 AAA
TAFTPA
TAF AMD
KTPA 290906Z 2909/3006 08004KT P6SM SCT008 BKN250
     FM291400 13005KT P6SM SCT025 BKN250
     FM291700 22006KT P6SM VCTS SCT035CB SCT130 BKN250
     FM292000 29007KT P6SM VCTS SCT040CB BKN130
     FM300000 06004KT P6SM SCT040 SCT130 BKN250=



000
FTUS42 KTBW 290539
TAFSRQ
TAF
KSRQ 290539Z 2906/3006 09005KT P6SM FEW020 BKN250
     FM291400 11007KT P6SM SCT025 BKN250
     FM291700 25007KT P6SM VCTS SCT035CB SCT130 BKN250
     FM292000 30008KT P6SM VCTS SCT040CB BKN130
     FM300000 07007KT P6SM SCT040 SCT130 BKN250=



000
FTUS42 KTBW 290539
TAFTPA
TAF
KTPA 290539Z 2906/3006 VRB03KT P6SM FEW020 BKN250
     FM291400 13005KT P6SM SCT025 BKN250
     FM291700 22006KT P6SM VCTS SCT035CB SCT130 BKN250
     FM292000 29007KT P6SM VCTS SCT040CB BKN130
     FM300000 06004KT P6SM SCT040 SCT130 BKN250=



000
FTUS42 KTBW 290539
TAFPIE
TAF
KPIE 290539Z 2906/3006 11006KT P6SM FEW020 BKN250
     FM291400 11007KT P6SM SCT025 BKN250
     FM291700 05005KT P6SM VCTS SCT035CB SCT130 BKN250
     FM292000 33007KT P6SM VCTS SCT040CB BKN130
     FM300000 06006KT P6SM SCT040 SCT130 BKN250=



000
FTUS42 KTBW 290539
TAFTPA
TAF
KTPA 290539Z 2906/3006 VRB03KT P6SM FEW020 BKN250
     FM291400 13005KT P6SM SCT025 BKN250
     FM291700 22006KT P6SM VCTS SCT035CB SCT130 BKN250
     FM292000 29007KT P6SM VCTS SCT040CB BKN130
     FM300000 06004KT P6SM SCT040 SCT130 BKN250=



000
FTUS42 KTBW 290539
TAFRSW
TAF
KRSW 290539Z 2906/3006 07004KT P6SM FEW020 SCT250
     FM291400 10007KT P6SM SCT025 BKN250
     FM291700 08008KT P6SM VCTS SCT035CB SCT130 BKN250
     FM292000 06008KT P6SM VCTS BKN040CB
     FM300000 08006KT P6SM SCT040 BKN130=



000
FTUS42 KTBW 290539
TAFPIE
TAF
KPIE 290539Z 2906/3006 11006KT P6SM FEW020 BKN250
     FM291400 11007KT P6SM SCT025 BKN250
     FM291700 05005KT P6SM VCTS SCT035CB SCT130 BKN250
     FM292000 33007KT P6SM VCTS SCT040CB BKN130
     FM300000 06006KT P6SM SCT040 SCT130 BKN250=



000
FTUS42 KTBW 290539
TAFSRQ
TAF
KSRQ 290539Z 2906/3006 09005KT P6SM FEW020 BKN250
     FM291400 11007KT P6SM SCT025 BKN250
     FM291700 25007KT P6SM VCTS SCT035CB SCT130 BKN250
     FM292000 30008KT P6SM VCTS SCT040CB BKN130
     FM300000 07007KT P6SM SCT040 SCT130 BKN250=



000
FTUS42 KTBW 290539
TAFFMY
TAF
KFMY 290539Z 2906/3006 07004KT P6SM FEW020 SCT250
     FM291400 10007KT P6SM SCT025 BKN250
     FM291700 08008KT P6SM VCTS SCT035CB SCT130 BKN250
     FM292000 06008KT P6SM VCTS BKN040CB
     FM300000 08006KT P6SM SCT040 BKN130=



000
FTUS42 KTBW 290539
TAFRSW
TAF
KRSW 290539Z 2906/3006 07004KT P6SM FEW020 SCT250
     FM291400 10007KT P6SM SCT025 BKN250
     FM291700 08008KT P6SM VCTS SCT035CB SCT130 BKN250
     FM292000 06008KT P6SM VCTS BKN040CB
     FM300000 08006KT P6SM SCT040 BKN130=



000
FTUS42 KTBW 290539
TAFFMY
TAF
KFMY 290539Z 2906/3006 07004KT P6SM FEW020 SCT250
     FM291400 10007KT P6SM SCT025 BKN250
     FM291700 08008KT P6SM VCTS SCT035CB SCT130 BKN250
     FM292000 06008KT P6SM VCTS BKN040CB
     FM300000 08006KT P6SM SCT040 BKN130=



000
FTUS42 KTBW 290257 AAA
TAFTPA
TAF AMD
KTPA 290257Z 2903/2924 VRB04KT P6SM FEW020 BKN250
     FM291400 14006KT P6SM VCSH SCT040 BKN120
     FM291800 21007KT P6SM VCTS SCT035CB BKN250=



000
FTUS42 KTBW 290257 AAA
TAFTPA
TAF AMD
KTPA 290257Z 2903/2924 VRB04KT P6SM FEW020 BKN250
     FM291400 14006KT P6SM VCSH SCT040 BKN120
     FM291800 21007KT P6SM VCTS SCT035CB BKN250=



000
FTUS42 KTBW 282357 AAA
TAFFMY
TAF AMD
KFMY 282357Z 2900/2924 09008KT P6SM VCSH SCT040 BKN120
     FM290600 VRB03KT P6SM SCT250
     FM291500 10007KT P6SM SCT035 SCT250
     FM291800 09007KT P6SM VCTS SCT035CB BKN250=



000
FTUS42 KTBW 282357 AAA
TAFFMY
TAF AMD
KFMY 282357Z 2900/2924 09008KT P6SM VCSH SCT040 BKN120
     FM290600 VRB03KT P6SM SCT250
     FM291500 10007KT P6SM SCT035 SCT250
     FM291800 09007KT P6SM VCTS SCT035CB BKN250=



000
FTUS42 KTBW 282322
TAFTPA
TAF
KTPA 282322Z 2900/2924 05007KT P6SM SCT040 BKN150
     FM290300 VRB04KT P6SM FEW040 BKN250
     FM291400 14006KT P6SM VCSH SCT040 BKN120
     FM291800 21007KT P6SM VCTS SCT035CB BKN250=



000
FTUS42 KTBW 282322
TAFPIE
TAF
KPIE 282322Z 2900/2924 05007KT P6SM SCT040 BKN150
     FM290300 VRB04KT P6SM FEW040 BKN250
     FM291400 14006KT P6SM VCSH SCT040 BKN120
     FM291800 21007KT P6SM VCTS SCT035CB BKN250=



000
FTUS42 KTBW 282322
TAFFMY
TAF
KFMY 282322Z 2900/2924 09008KT 4SM -TSRA BKN040CB BKN120
     FM290100 09004KT P6SM SCT040 SCT120 BKN250
     FM290600 VRB03KT P6SM SCT250
     FM291500 10007KT P6SM SCT035 SCT250
     FM291800 09007KT P6SM VCTS SCT035CB BKN250=



000
FTUS42 KTBW 282322
TAFRSW
TAF
KRSW 282322Z 2900/2924 09007KT P6SM VCTS SCT040CB BKN080
     FM290100 08004KT P6SM SCT040 SCT120 BKN250
     FM290600 VRB03KT P6SM SCT250
     FM291500 10007KT P6SM SCT035 SCT250
     FM291800 09007KT P6SM VCTS SCT035CB BKN250=



000
FTUS42 KTBW 282322
TAFSRQ
TAF
KSRQ 282322Z 2900/2924 10006KT P6SM SCT035 SCT150 BKN250
     FM290300 VRB04KT P6SM SCT150 BKN250
     FM291400 11007KT P6SM FEW030 SCT250
     FM291800 24007KT P6SM VCTS SCT035CB BKN250=



000
FTUS42 KTBW 282322
TAFTPA
TAF
KTPA 282322Z 2900/2924 05007KT P6SM SCT040 BKN150
     FM290300 VRB04KT P6SM FEW040 BKN250
     FM291400 14006KT P6SM VCSH SCT040 BKN120
     FM291800 21007KT P6SM VCTS SCT035CB BKN250=



000
FTUS42 KTBW 282322
TAFPIE
TAF
KPIE 282322Z 2900/2924 05007KT P6SM SCT040 BKN150
     FM290300 VRB04KT P6SM FEW040 BKN250
     FM291400 14006KT P6SM VCSH SCT040 BKN120
     FM291800 21007KT P6SM VCTS SCT035CB BKN250=



000
FTUS42 KTBW 282322
TAFRSW
TAF
KRSW 282322Z 2900/2924 09007KT P6SM VCTS SCT040CB BKN080
     FM290100 08004KT P6SM SCT040 SCT120 BKN250
     FM290600 VRB03KT P6SM SCT250
     FM291500 10007KT P6SM SCT035 SCT250
     FM291800 09007KT P6SM VCTS SCT035CB BKN250=



000
FTUS42 KTBW 282322
TAFFMY
TAF
KFMY 282322Z 2900/2924 09008KT 4SM -TSRA BKN040CB BKN120
     FM290100 09004KT P6SM SCT040 SCT120 BKN250
     FM290600 VRB03KT P6SM SCT250
     FM291500 10007KT P6SM SCT035 SCT250
     FM291800 09007KT P6SM VCTS SCT035CB BKN250=



000
FTUS42 KTBW 282322
TAFSRQ
TAF
KSRQ 282322Z 2900/2924 10006KT P6SM SCT035 SCT150 BKN250
     FM290300 VRB04KT P6SM SCT150 BKN250
     FM291400 11007KT P6SM FEW030 SCT250
     FM291800 24007KT P6SM VCTS SCT035CB BKN250=



000
FTUS42 KTBW 282122 AAB
TAFFMY
TAF AMD
KFMY 282122Z 2821/2918 12012KT P6SM VCTS SCT035CB BKN080
      TEMPO 2821/2824 VRB15G25KT 2SM +TSRA BKN025CB
     FM290100 08004KT P6SM SCT040 SCT120 BKN250
     FM290600 08003KT P6SM SCT250
     FM291500 10006KT P6SM SCT035 SCT250=



000
FTUS42 KTBW 282120 AAB
TAFRSW
TAF AMD
KRSW 282120Z 2821/2918 12010KT P6SM VCTS SCT040CB BKN120
      TEMPO 2821/2824 VRB15G28KT 2SM +TSRA BKN025CB
     FM290100 08004KT P6SM SCT040 SCT120 BKN250
     FM290600 08003KT P6SM SCT250
     FM291500 10006KT P6SM SCT035 SCT250=



000
FTUS42 KTBW 282100 AAA
TAFPIE
TAF AMD
KPIE 282100Z 2821/2918 12008KT P6SM VCTS SCT030CB BKN250
      TEMPO 2821/2824 VRB12G20KT 2SM TSRA BKN030CB
     FM290100 11006KT P6SM SCT035 BKN250
     FM290700 VRB03KT P6SM SCT250
     FM291400 12006KT P6SM VCSH SCT040 BKN250=



000
FTUS42 KTBW 282056 AAA
TAFTPA
TAF AMD
KTPA 282056Z 2821/2918 14007KT P6SM VCTS SCT030CB BKN150
      TEMPO 2821/2824 VRB15G20KT 2SM TSRA BKN030CB
     FM290100 08003KT P6SM FEW040 BKN250
     FM290700 VRB03KT P6SM SCT250
     FM291400 12006KT P6SM VCSH SCT040 BKN250=



000
FTUS42 KTBW 281919 AAA
TAFRSW
TAF AMD
KRSW 281919Z 2819/2918 15006KT P6SM VCTS SCT040CB BKN120
      TEMPO 2819/2822 VRB15G25KT 2SM +TSRA BKN025CB
     FM290100 08004KT P6SM SCT040 SCT120 BKN250
     FM290600 08003KT P6SM SCT250
     FM291500 10006KT P6SM SCT035 SCT250=



000
FTUS42 KTBW 281919 AAA
TAFRSW
TAF AMD
KRSW 281919Z 2819/2918 15006KT P6SM VCTS SCT040CB BKN120
      TEMPO 2819/2822 VRB15G25KT 2SM +TSRA BKN025CB
     FM290100 08004KT P6SM SCT040 SCT120 BKN250
     FM290600 08003KT P6SM SCT250
     FM291500 10006KT P6SM SCT035 SCT250=



000
FTUS42 KTBW 281918 AAA
TAFFMY
TAF AMD
KFMY 281918Z 2819/2918 11006KT P6SM VCTS SCT035CB BKN080
      TEMPO 2819/2822 VRB15G25KT 2SM +TSRA BKN025CB
     FM290100 08004KT P6SM SCT040 SCT120 BKN250
     FM290600 08003KT P6SM SCT250
     FM291500 10006KT P6SM SCT035 SCT250=



000
FTUS42 KTBW 281918 AAA
TAFFMY
TAF AMD
KFMY 281918Z 2819/2918 11006KT P6SM VCTS SCT035CB BKN080
      TEMPO 2819/2822 VRB15G25KT 2SM +TSRA BKN025CB
     FM290100 08004KT P6SM SCT040 SCT120 BKN250
     FM290600 08003KT P6SM SCT250
     FM291500 10006KT P6SM SCT035 SCT250=



000
FTUS42 KTBW 281725
TAFSRQ
TAF
KSRQ 281725Z 2818/2918 VRB05KT P6SM VCTS SCT025CB SCT150 OVC250
      TEMPO 2818/2819 VRB15G25KT 2SM +TSRA BKN025CB
     FM282000 28008KT P6SM VCTS SCT030CB BKN120 OVC250
     FM290100 VRB03KT P6SM SCT030 SCT150 BKN250
     FM290800 VRB03KT P6SM SCT250=



000
FTUS42 KTBW 281725
TAFFMY
TAF
KFMY 281725Z 2818/2918 11006KT P6SM VCTS SCT035CB BKN250
     FM290100 08004KT P6SM SCT040 BKN250
     FM290600 08003KT P6SM SCT250
     FM291500 10006KT P6SM SCT035 SCT250=



000
FTUS42 KTBW 281725
TAFTPA
TAF
KTPA 281725Z 2818/2918 13006KT P6SM VCTS SCT030CB SCT150 OVC250
     FM282000 21007KT P6SM VCTS SCT040CB SCT150 BKN250
     FM290100 08003KT P6SM FEW040 BKN250
     FM290700 VRB03KT P6SM SCT250
     FM291400 12006KT P6SM VCSH SCT040 BKN250=



000
FTUS42 KTBW 281725
TAFRSW
TAF
KRSW 281725Z 2818/2918 17006KT P6SM VCTS SCT035CB BKN250
     FM290100 08004KT P6SM SCT040 BKN250
     FM290600 08003KT P6SM SCT250
     FM291500 10006KT P6SM SCT035 SCT250=



000
FTUS42 KTBW 281725
TAFTPA
TAF
KTPA 281725Z 2818/2918 13006KT P6SM VCTS SCT030CB SCT150 OVC250
     FM282000 21007KT P6SM VCTS SCT040CB SCT150 BKN250
     FM290100 08003KT P6SM FEW040 BKN250
     FM290700 VRB03KT P6SM SCT250
     FM291400 12006KT P6SM VCSH SCT040 BKN250=



000
FTUS42 KTBW 281725
TAFFMY
TAF
KFMY 281725Z 2818/2918 11006KT P6SM VCTS SCT035CB BKN250
     FM290100 08004KT P6SM SCT040 BKN250
     FM290600 08003KT P6SM SCT250
     FM291500 10006KT P6SM SCT035 SCT250=



000
FTUS42 KTBW 281725
TAFRSW
TAF
KRSW 281725Z 2818/2918 17006KT P6SM VCTS SCT035CB BKN250
     FM290100 08004KT P6SM SCT040 BKN250
     FM290600 08003KT P6SM SCT250
     FM291500 10006KT P6SM SCT035 SCT250=



000
FTUS42 KTBW 281725
TAFPIE
TAF
KPIE 281725Z 2818/2918 10005KT P6SM VCTS SCT035CB OVC250
     FM282000 26006KT P6SM VCTS SCT035CB BKN250
     FM290100 11006KT P6SM SCT035 BKN250
     FM290700 VRB03KT P6SM SCT250
     FM291400 12006KT P6SM VCSH SCT040 BKN250=



000
FTUS42 KTBW 281725
TAFSRQ
TAF
KSRQ 281725Z 2818/2918 VRB05KT P6SM VCTS SCT025CB SCT150 OVC250
      TEMPO 2818/2819 VRB15G25KT 2SM +TSRA BKN025CB
     FM282000 28008KT P6SM VCTS SCT030CB BKN120 OVC250
     FM290100 VRB03KT P6SM SCT030 SCT150 BKN250
     FM290800 VRB03KT P6SM SCT250=



000
FTUS42 KTBW 281725
TAFPIE
TAF
KPIE 281725Z 2818/2918 10005KT P6SM VCTS SCT035CB OVC250
     FM282000 26006KT P6SM VCTS SCT035CB BKN250
     FM290100 11006KT P6SM SCT035 BKN250
     FM290700 VRB03KT P6SM SCT250
     FM291400 12006KT P6SM VCSH SCT040 BKN250=



000
FTUS42 KTBW 281633 AAA
TAFSRQ
TAF AMD
KSRQ 281633Z 2817/2912 08005KT P6SM VCSH SCT025 SCT150 OVC250
      TEMPO 2817/2819 VRB15G25KT 2SM +TSRA BKN021CB
     FM282000 26008KT P6SM VCTS SCT035CB BKN250
     FM290100 VRB03KT P6SM BKN250=



000
FTUS42 KTBW 281502 AAA
TAFTPA
TAF AMD
KTPA 281502Z 2815/2912 VRB04KT P6SM VCTS SCT030CB SCT150 BKN250
     FM281700 21007KT P6SM VCTS SCT040CB SCT150 BKN250
     FM290100 12005KT P6SM FEW040 BKN250=



000
FTUS42 KTBW 281502 AAA
TAFTPA
TAF AMD
KTPA 281502Z 2815/2912 VRB04KT P6SM VCTS SCT030CB SCT150 BKN250
     FM281700 21007KT P6SM VCTS SCT040CB SCT150 BKN250
     FM290100 12005KT P6SM FEW040 BKN250=



000
FTUS42 KTBW 281139
TAFTPA
TAF
KTPA 281139Z 2812/2912 10005KT P6SM VCSH FEW030 BKN250
     FM281500 21005KT P6SM VCTS SCT035CB BKN250
     FM290100 12005KT P6SM FEW040 BKN250=



000
FTUS42 KTBW 281139
TAFPIE
TAF
KPIE 281139Z 2812/2912 12006KT P6SM VCSH BKN250
     FM281500 08005KT P6SM VCTS SCT030CB BKN250
     FM282000 21006KT P6SM VCTS SCT035CB BKN250
     FM290100 11006KT P6SM SCT035 BKN250=



000
FTUS42 KTBW 281139
TAFTPA
TAF
KTPA 281139Z 2812/2912 10005KT P6SM VCSH FEW030 BKN250
     FM281500 21005KT P6SM VCTS SCT035CB BKN250
     FM290100 12005KT P6SM FEW040 BKN250=



000
FTUS42 KTBW 281139
TAFPIE
TAF
KPIE 281139Z 2812/2912 12006KT P6SM VCSH BKN250
     FM281500 08005KT P6SM VCTS SCT030CB BKN250
     FM282000 21006KT P6SM VCTS SCT035CB BKN250
     FM290100 11006KT P6SM SCT035 BKN250=



000
FTUS42 KTBW 281139
TAFSRQ
TAF
KSRQ 281139Z 2812/2912 08005KT P6SM VCSH SCT035 BKN250
     FM281700 VRB03KT P6SM VCTS SCT040CB BKN250
     FM290100 VRB03KT P6SM BKN250=



000
FTUS42 KTBW 281139
TAFFMY
TAF
KFMY 281139Z 2812/2912 VRB03KT P6SM BKN250
     FM281800 11005KT P6SM VCTS SCT040CB BKN200
     FM290100 08004KT P6SM SCT040 BKN250=



000
FTUS42 KTBW 281139
TAFSRQ
TAF
KSRQ 281139Z 2812/2912 08005KT P6SM VCSH SCT035 BKN250
     FM281700 VRB03KT P6SM VCTS SCT040CB BKN250
     FM290100 VRB03KT P6SM BKN250=



000
FTUS42 KTBW 281139
TAFRSW
TAF
KRSW 281139Z 2812/2912 VRB03KT P6SM BKN250
     FM281800 15005KT P6SM VCTS SCT040CB BKN200
     FM290100 08005KT P6SM SCT040 BKN250=



000
FTUS42 KTBW 281139
TAFRSW
TAF
KRSW 281139Z 2812/2912 VRB03KT P6SM BKN250
     FM281800 15005KT P6SM VCTS SCT040CB BKN200
     FM290100 08005KT P6SM SCT040 BKN250=



000
FTUS42 KTBW 281139
TAFFMY
TAF
KFMY 281139Z 2812/2912 VRB03KT P6SM BKN250
     FM281800 11005KT P6SM VCTS SCT040CB BKN200
     FM290100 08004KT P6SM SCT040 BKN250=



000
FTUS42 KTBW 280901 AAA
TAFTPA
TAF AMD
KTPA 280901Z 2809/2906 VRB03KT P6SM FEW025 BKN200
     FM281200 12005KT P6SM VCTS SCT035CB BKN250
     FM281800 23006KT P6SM VCTS SCT045CB BKN150=



000
FTUS42 KTBW 280901 AAA
TAFTPA
TAF AMD
KTPA 280901Z 2809/2906 VRB03KT P6SM FEW025 BKN200
     FM281200 12005KT P6SM VCTS SCT035CB BKN250
     FM281800 23006KT P6SM VCTS SCT045CB BKN150=



000
FTUS42 KTBW 280522
TAFSRQ
TAF
KSRQ 280522Z 2806/2906 11005KT P6SM FEW030 BKN200
     FM280900 13005KT P6SM VCTS SCT035CB
     FM281200 10007KT P6SM VCTS SCT035CB BKN150
     FM281700 VRB03KT P6SM VCTS SCT040CB BKN200
     FM290300 VRB03KT P6SM BKN200=



000
FTUS42 KTBW 280522
TAFRSW
TAF
KRSW 280522Z 2806/2906 VRB03KT P6SM FEW030 BKN250
     FM281200 08005KT P6SM VCTS SCT035CB
     FM281800 00000KT P6SM VCTS SCT040CB BKN200
     FM290300 08005KT P6SM SCT040 BKN200=



000
FTUS42 KTBW 280522
TAFTPA
TAF
KTPA 280522Z 2806/2906 VRB03KT P6SM FEW025 BKN200
     FM281200 10005KT P6SM VCTS SCT035CB
     FM281800 00000KT P6SM VCTS SCT045CB BKN150=



000
FTUS42 KTBW 280522
TAFPIE
TAF
KPIE 280522Z 2806/2906 15004KT P6SM FEW025 BKN200
     FM281200 10006KT P6SM VCTS SCT035CB
     FM282000 00000KT P6SM VCTS SCT040CB BKN150=



000
FTUS42 KTBW 280522
TAFFMY
TAF
KFMY 280522Z 2806/2906 VRB03KT P6SM FEW030 BKN200
     FM280900 13005KT P6SM VCTS SCT035CB
     FM281200 09005KT P6SM VCTS SCT035CB
     FM281900 00000KT P6SM VCTS SCT040CB BKN200
     FM290000 00000KT P6SM SCT040 BKN200
     FM290400 08006KT P6SM SCT040 BKN200=



000
FTUS42 KTBW 280522
TAFTPA
TAF
KTPA 280522Z 2806/2906 VRB03KT P6SM FEW025 BKN200
     FM281200 10005KT P6SM VCTS SCT035CB
     FM281800 00000KT P6SM VCTS SCT045CB BKN150=



000
FTUS42 KTBW 280522
TAFPIE
TAF
KPIE 280522Z 2806/2906 15004KT P6SM FEW025 BKN200
     FM281200 10006KT P6SM VCTS SCT035CB
     FM282000 00000KT P6SM VCTS SCT040CB BKN150=



000
FTUS42 KTBW 280522
TAFSRQ
TAF
KSRQ 280522Z 2806/2906 11005KT P6SM FEW030 BKN200
     FM280900 13005KT P6SM VCTS SCT035CB
     FM281200 10007KT P6SM VCTS SCT035CB BKN150
     FM281700 VRB03KT P6SM VCTS SCT040CB BKN200
     FM290300 VRB03KT P6SM BKN200=



000
FTUS42 KTBW 280522
TAFRSW
TAF
KRSW 280522Z 2806/2906 VRB03KT P6SM FEW030 BKN250
     FM281200 08005KT P6SM VCTS SCT035CB
     FM281800 00000KT P6SM VCTS SCT040CB BKN200
     FM290300 08005KT P6SM SCT040 BKN200=



000
FTUS42 KTBW 280522
TAFFMY
TAF
KFMY 280522Z 2806/2906 VRB03KT P6SM FEW030 BKN200
     FM280900 13005KT P6SM VCTS SCT035CB
     FM281200 09005KT P6SM VCTS SCT035CB
     FM281900 00000KT P6SM VCTS SCT040CB BKN200
     FM290000 00000KT P6SM SCT040 BKN200
     FM290400 08006KT P6SM SCT040 BKN200=



000
FTUS42 KTBW 280258 AAA
TAFTPA
TAF AMD
KTPA 280258Z 2803/2824 VRB03KT P6SM FEW030 SCT250
     FM281600 20007KT P6SM VCTS SCT035CB BKN120
     FM282000 24007KT P6SM VCTS SCT035CB BKN120=



000
FTUS42 KTBW 272333
TAFFMY
TAF
KFMY 272333Z 2800/2824 10006KT P6SM SCT035 BKN250
     FM280300 VRB04KT P6SM BKN250
     FM281400 14006KT P6SM VCTS SCT035CB BKN120
     FM281800 22007KT P6SM VCTS SCT035CB BKN120=



000
FTUS42 KTBW 272333
TAFFMY
TAF
KFMY 272333Z 2800/2824 10006KT P6SM SCT035 BKN250
     FM280300 VRB04KT P6SM BKN250
     FM281400 14006KT P6SM VCTS SCT035CB BKN120
     FM281800 22007KT P6SM VCTS SCT035CB BKN120=



000
FTUS42 KTBW 272333
TAFPIE
TAF
KPIE 272333Z 2800/2824 14006KT P6SM SCT120 BKN250
     FM280300 VRB04KT P6SM SCT250
     FM281600 17007KT P6SM VCTS SCT035CB BKN120
     FM282000 22007KT P6SM VCTS SCT035CB BKN120=



000
FTUS42 KTBW 272333
TAFTPA
TAF
KTPA 272333Z 2800/2824 15005KT P6SM SCT120 BKN250
     FM280300 VRB05KT P6SM SCT250
     FM281600 20007KT P6SM VCTS SCT035CB BKN120
     FM282000 24007KT P6SM VCTS SCT035CB BKN120=



000
FTUS42 KTBW 272333
TAFPIE
TAF
KPIE 272333Z 2800/2824 14006KT P6SM SCT120 BKN250
     FM280300 VRB04KT P6SM SCT250
     FM281600 17007KT P6SM VCTS SCT035CB BKN120
     FM282000 22007KT P6SM VCTS SCT035CB BKN120=



000
FTUS42 KTBW 272333
TAFRSW
TAF
KRSW 272333Z 2800/2824 09005KT P6SM SCT035 BKN250
     FM280300 VRB04KT P6SM BKN250
     FM281400 14006KT P6SM VCTS SCT035CB BKN120
     FM281800 22007KT P6SM VCTS SCT035CB BKN120=



000
FTUS42 KTBW 272333
TAFSRQ
TAF
KSRQ 272333Z 2800/2824 14007KT P6SM SCT120 BKN250
     FM280300 VRB04KT P6SM SCT250
     FM281400 16006KT P6SM VCTS SCT035CB BKN120
     FM281800 25007KT P6SM VCTS SCT035CB BKN120=



000
FTUS42 KTBW 272333
TAFTPA
TAF
KTPA 272333Z 2800/2824 15005KT P6SM SCT120 BKN250
     FM280300 VRB05KT P6SM SCT250
     FM281600 20007KT P6SM VCTS SCT035CB BKN120
     FM282000 24007KT P6SM VCTS SCT035CB BKN120=



000
FTUS42 KTBW 272333
TAFRSW
TAF
KRSW 272333Z 2800/2824 09005KT P6SM SCT035 BKN250
     FM280300 VRB04KT P6SM BKN250
     FM281400 14006KT P6SM VCTS SCT035CB BKN120
     FM281800 22007KT P6SM VCTS SCT035CB BKN120=



000
FTUS42 KTBW 272333
TAFSRQ
TAF
KSRQ 272333Z 2800/2824 14007KT P6SM SCT120 BKN250
     FM280300 VRB04KT P6SM SCT250
     FM281400 16006KT P6SM VCTS SCT035CB BKN120
     FM281800 25007KT P6SM VCTS SCT035CB BKN120=



000
FTUS42 KTBW 272104 AAA
TAFTPA
TAF AMD
KTPA 272104Z 2721/2818 VRB05KT P6SM VCSH SCT030 SCT120 BKN250
     FM280100 VRB03KT P6SM FEW040 SCT150 BKN250
     FM280700 VRB03KT P6SM SCT250
     FM281300 10004KT P6SM VCSH SCT020 SCT250=



000
FTUS42 KTBW 272104 AAA
TAFTPA
TAF AMD
KTPA 272104Z 2721/2818 VRB05KT P6SM VCSH SCT030 SCT120 BKN250
     FM280100 VRB03KT P6SM FEW040 SCT150 BKN250
     FM280700 VRB03KT P6SM SCT250
     FM281300 10004KT P6SM VCSH SCT020 SCT250=



000
FTUS42 KTBW 271735
TAFFMY
TAF
KFMY 271735Z 2718/2818 VRB03KT P6SM VCTS SCT035CB BKN250
      TEMPO 2718/2720 2SM TSRA BKN025CB
     FM272000 23006KT P6SM VCTS SCT030CB BKN120
     FM280100 10004KT P6SM SCT030 BKN250
     FM280600 VRB03KT P6SM SCT250
     FM281500 12004KT P6SM VCTS SCT030CB SCT250=



000
FTUS42 KTBW 271735
TAFRSW
TAF
KRSW 271735Z 2718/2818 VRB03KT P6SM VCTS SCT035CB BKN250
      TEMPO 2718/2720 2SM TSRA BKN025CB
     FM272000 23006KT P6SM VCTS SCT030CB BKN120
     FM280100 10004KT P6SM SCT030 BKN250
     FM280600 VRB03KT P6SM SCT250
     FM281500 12004KT P6SM VCTS SCT030CB SCT250=



000
FTUS42 KTBW 271735
TAFSRQ
TAF
KSRQ 271735Z 2718/2818 17008KT P6SM VCSH SCT040 BKN120
      TEMPO 2718/2720 6SM -SHRA BKN040
     FM272000 25007KT P6SM VCTS SCT035CB SCT120 BKN250
     FM280100 10004KT P6SM SCT030 BKN250
     FM280600 VRB03KT P6SM SCT250
     FM281300 10004KT P6SM VCSH SCT020 SCT250=



000
FTUS42 KTBW 271735
TAFTPA
TAF
KTPA 271735Z 2718/2818 16004KT P6SM VCSH SCT025 BKN120
     FM272100 24007KT P6SM VCTS SCT035CB SCT120 BKN250
     FM280100 VRB03KT P6SM SCT040 SCT120 BKN250
     FM280700 VRB03KT P6SM SCT250
     FM281300 10004KT P6SM VCSH SCT020 SCT250=



000
FTUS42 KTBW 271735
TAFPIE
TAF
KPIE 271735Z 2718/2818 15008KT P6SM VCSH SCT035 BKN120
     FM272100 26007KT P6SM VCTS SCT035CB SCT120 BKN250
     FM280100 VRB03KT P6SM SCT030 SCT120 BKN250
     FM280700 VRB03KT P6SM SCT250
     FM281300 10004KT P6SM VCSH SCT020 SCT250=



000
FTUS42 KTBW 271400 AAC
TAFPIE
TAF AMD
KPIE 271400Z 2714/2812 19007KT P6SM VCTS SCT035CB BKN120
      TEMPO 2714/2716 4SM SHRA BKN035
     FM271600 20008KT P6SM VCTS SCT035CB SCT120 BKN250
     FM280200 15004KT P6SM VCTS SCT035CB BKN250
     FM280600 VRB03KT P6SM SCT035 BKN250=



000
FTUS42 KTBW 271400 AAC
TAFPIE
TAF AMD
KPIE 271400Z 2714/2812 19007KT P6SM VCTS SCT035CB BKN120
      TEMPO 2714/2716 4SM SHRA BKN035
     FM271600 20008KT P6SM VCTS SCT035CB SCT120 BKN250
     FM280200 15004KT P6SM VCTS SCT035CB BKN250
     FM280600 VRB03KT P6SM SCT035 BKN250=



000
FTUS42 KTBW 271359 AAC
TAFTPA
TAF AMD
KTPA 271359Z 2714/2812 VRB04KT P6SM VCTS SCT025CB BKN100
     FM271800 21007KT P6SM VCTS SCT035CB BKN250
     FM280300 VRB03KT P6SM VCTS SCT035CB BKN250
     FM280600 VRB03KT P6SM SCT050 BKN250=



000
FTUS42 KTBW 271318 AAA
TAFRSW
TAF AMD
KRSW 271318Z 2713/2812 14006KT P6SM VCTS SCT035CB BKN250
      TEMPO 2713/2715 VRB15G25KT 2SM +TSRA BKN025CB
     FM271500 17007KT P6SM VCTS SCT035CB BKN120
     FM272200 26007KT P6SM VCTS SCT040CB BKN250
     FM280300 10004KT P6SM VCTS SCT035CB
     FM280900 VRB03KT P6SM SCT035=



000
FTUS42 KTBW 271316 AAA
TAFFMY
TAF AMD
KFMY 271316Z 2713/2812 VRB03KT P6SM VCTS SCT035CB BKN250
      TEMPO 2713/2715 VRB15G25KT 2SM +TSRA BKN025CB
     FM271500 18008KT P6SM VCTS SCT035CB BKN250
     FM272000 26008KT P6SM VCTS SCT040CB BKN250
     FM280300 09004KT P6SM VCTS SCT040CB
     FM280900 VRB03KT P6SM SCT035=



000
FTUS42 KTBW 271313 AAB
TAFPIE
TAF AMD
KPIE 271313Z 2713/2812 VRB05KT P6SM VCTS SCT025CB BKN100
      TEMPO 2713/2715 VRB15G25KT 2SM +TSRA BKN025CB
     FM271500 20008KT P6SM VCTS SCT035CB SCT120 BKN250
     FM280200 15004KT P6SM VCTS SCT035CB BKN250
     FM280600 VRB03KT P6SM SCT035 BKN250=



000
FTUS42 KTBW 271313 AAB
TAFPIE
TAF AMD
KPIE 271313Z 2713/2812 VRB05KT P6SM VCTS SCT025CB BKN100
      TEMPO 2713/2715 VRB15G25KT 2SM +TSRA BKN025CB
     FM271500 20008KT P6SM VCTS SCT035CB SCT120 BKN250
     FM280200 15004KT P6SM VCTS SCT035CB BKN250
     FM280600 VRB03KT P6SM SCT035 BKN250=



000
FTUS42 KTBW 271312 AAB
TAFTPA
TAF AMD
KTPA 271312Z 2713/2812 16004KT P6SM VCTS SCT025CB BKN080
      TEMPO 2713/2715 VRB15G25KT 2SM +TSRA BKN025CB
     FM271800 21007KT P6SM VCTS SCT035CB BKN250
     FM280300 VRB03KT P6SM VCTS SCT035CB BKN250
     FM280600 VRB03KT P6SM SCT050 BKN250=



000
FTUS42 KTBW 271312 AAB
TAFTPA
TAF AMD
KTPA 271312Z 2713/2812 16004KT P6SM VCTS SCT025CB BKN080
      TEMPO 2713/2715 VRB15G25KT 2SM +TSRA BKN025CB
     FM271800 21007KT P6SM VCTS SCT035CB BKN250
     FM280300 VRB03KT P6SM VCTS SCT035CB BKN250
     FM280600 VRB03KT P6SM SCT050 BKN250=



000
FTUS42 KTBW 271311 AAB
TAFSRQ
TAF AMD
KSRQ 271311Z 2713/2812 26005KT P6SM VCTS SCT025CB BKN100
      TEMPO 2713/2715 VRB15G25KT 2SM +TSRA BKN025CB
     FM271500 20007KT P6SM VCTS SCT030CB BKN250
     FM271800 22008KT P6SM VCTS SCT035CB BKN250
     FM280600 VRB03KT P6SM SCT040 BKN250=



000
FTUS42 KTBW 271311 AAB
TAFSRQ
TAF AMD
KSRQ 271311Z 2713/2812 26005KT P6SM VCTS SCT025CB BKN100
      TEMPO 2713/2715 VRB15G25KT 2SM +TSRA BKN025CB
     FM271500 20007KT P6SM VCTS SCT030CB BKN250
     FM271800 22008KT P6SM VCTS SCT035CB BKN250
     FM280600 VRB03KT P6SM SCT040 BKN250=



000
FTUS42 KTBW 271134 AAA
TAFSRQ
TAF AMD
KSRQ 271134Z 2712/2812 14005KT P6SM VCTS SCT025CB BKN250
      TEMPO 2712/2713 VRB15G25KT 2SM +TSRA BKN025CB
     FM271500 20007KT P6SM VCTS SCT030CB BKN250
     FM271800 22008KT P6SM VCTS SCT035CB BKN250
     FM280600 VRB03KT P6SM SCT040 BKN250=



000
FTUS42 KTBW 271134 AAA
TAFSRQ
TAF AMD
KSRQ 271134Z 2712/2812 14005KT P6SM VCTS SCT025CB BKN250
      TEMPO 2712/2713 VRB15G25KT 2SM +TSRA BKN025CB
     FM271500 20007KT P6SM VCTS SCT030CB BKN250
     FM271800 22008KT P6SM VCTS SCT035CB BKN250
     FM280600 VRB03KT P6SM SCT040 BKN250=



000
FTUS42 KTBW 271133 AAA
TAFTPA
TAF AMD
KTPA 271133Z 2712/2812 16004KT P6SM VCTS SCT035CB BKN250
      TEMPO 2712/2713 VRB15G25KT 2SM +TSRA BKN025CB
     FM271800 21007KT P6SM VCTS SCT035CB BKN250
     FM280300 VRB03KT P6SM VCTS SCT035CB BKN250
     FM280600 VRB03KT P6SM SCT050 BKN250=



000
FTUS42 KTBW 271133 AAA
TAFTPA
TAF AMD
KTPA 271133Z 2712/2812 16004KT P6SM VCTS SCT035CB BKN250
      TEMPO 2712/2713 VRB15G25KT 2SM +TSRA BKN025CB
     FM271800 21007KT P6SM VCTS SCT035CB BKN250
     FM280300 VRB03KT P6SM VCTS SCT035CB BKN250
     FM280600 VRB03KT P6SM SCT050 BKN250=



000
FTUS42 KTBW 271131 AAA
TAFPIE
TAF AMD
KPIE 271131Z 2712/2812 VRB03KT P6SM VCTS SCT035CB BKN250
      TEMPO 2712/2713 VRB15G25KT 3SM TSRA BKN025CB
     FM271500 20008KT P6SM VCTS SCT035CB BKN250
     FM280200 15004KT P6SM VCTS SCT035CB BKN250
     FM280600 VRB03KT P6SM SCT035 BKN250=



000
FTUS42 KTBW 271131 AAA
TAFPIE
TAF AMD
KPIE 271131Z 2712/2812 VRB03KT P6SM VCTS SCT035CB BKN250
      TEMPO 2712/2713 VRB15G25KT 3SM TSRA BKN025CB
     FM271500 20008KT P6SM VCTS SCT035CB BKN250
     FM280200 15004KT P6SM VCTS SCT035CB BKN250
     FM280600 VRB03KT P6SM SCT035 BKN250=



000
FTUS42 KTBW 271120
TAFTPA
TAF
KTPA 271120Z 2712/2812 16004KT P6SM VCTS SCT035CB BKN250
     FM271800 21007KT P6SM VCTS SCT030CB BKN100 BKN250
     FM280300 VRB03KT P6SM VCTS SCT035CB BKN250
     FM280600 VRB03KT P6SM SCT050 BKN250=



000
FTUS42 KTBW 271120
TAFFMY
TAF
KFMY 271120Z 2712/2812 VRB03KT P6SM VCTS SCT035CB
     FM271500 18008KT P6SM VCTS SCT070CB BKN200
     FM272000 26008KT P6SM VCTS SCT035CB BKN090
     FM280300 09004KT P6SM VCTS SCT035CB
     FM280900 VRB03KT P6SM SCT035=



000
FTUS42 KTBW 271120
TAFSRQ
TAF
KSRQ 271120Z 2712/2812 14005KT P6SM VCTS SCT025CB BKN250
     FM271500 20007KT P6SM VCTS SCT040CB BKN250
     FM271800 22008KT P6SM VCTS SCT050CB BKN250
     FM280600 VRB03KT P6SM SCT040 BKN250=



000
FTUS42 KTBW 271120
TAFTPA
TAF
KTPA 271120Z 2712/2812 16004KT P6SM VCTS SCT035CB BKN250
     FM271800 21007KT P6SM VCTS SCT030CB BKN100 BKN250
     FM280300 VRB03KT P6SM VCTS SCT035CB BKN250
     FM280600 VRB03KT P6SM SCT050 BKN250=



000
FTUS42 KTBW 271120
TAFRSW
TAF
KRSW 271120Z 2712/2812 VRB03KT P6SM VCTS SCT035CB
     FM271400 17007KT P6SM VCTS SCT035CB
     FM272200 26007KT P6SM VCTS SCT040CB BKN150
     FM280300 10004KT P6SM VCTS SCT035CB
     FM280900 VRB03KT P6SM SCT035=



000
FTUS42 KTBW 271120
TAFRSW
TAF
KRSW 271120Z 2712/2812 VRB03KT P6SM VCTS SCT035CB
     FM271400 17007KT P6SM VCTS SCT035CB
     FM272200 26007KT P6SM VCTS SCT040CB BKN150
     FM280300 10004KT P6SM VCTS SCT035CB
     FM280900 VRB03KT P6SM SCT035=



000
FTUS42 KTBW 271120
TAFPIE
TAF
KPIE 271120Z 2712/2812 VRB03KT P6SM VCTS SCT035CB
     FM271500 20008KT P6SM VCTS SCT035CB BKN200
     FM280200 15004KT P6SM VCTS SCT035CB BKN250
     FM280600 VRB03KT P6SM SCT035 BKN250=



000
FTUS42 KTBW 271120
TAFSRQ
TAF
KSRQ 271120Z 2712/2812 14005KT P6SM VCTS SCT025CB BKN250
     FM271500 20007KT P6SM VCTS SCT040CB BKN250
     FM271800 22008KT P6SM VCTS SCT050CB BKN250
     FM280600 VRB03KT P6SM SCT040 BKN250=



000
FTUS42 KTBW 271120
TAFFMY
TAF
KFMY 271120Z 2712/2812 VRB03KT P6SM VCTS SCT035CB
     FM271500 18008KT P6SM VCTS SCT070CB BKN200
     FM272000 26008KT P6SM VCTS SCT035CB BKN090
     FM280300 09004KT P6SM VCTS SCT035CB
     FM280900 VRB03KT P6SM SCT035=



000
FTUS42 KTBW 271120
TAFPIE
TAF
KPIE 271120Z 2712/2812 VRB03KT P6SM VCTS SCT035CB
     FM271500 20008KT P6SM VCTS SCT035CB BKN200
     FM280200 15004KT P6SM VCTS SCT035CB BKN250
     FM280600 VRB03KT P6SM SCT035 BKN250=



000
FTUS42 KTBW 270858 AAA
TAFTPA
TAF AMD
KTPA 270858Z 2709/2806 16005KT P6SM FEW050 BKN250
     FM271200 16004KT P6SM VCTS SCT035CB BKN250
     FM271800 21007KT P6SM VCTS SCT030CB BKN100 BKN250
     FM280300 VRB03KT P6SM SCT040 BKN200=



    US Dept of Commerce
    National Oceanic and Atmospheric Administration
    National Weather Service
    1325 East West Highway
    Silver Spring, MD 20910
    Page Author: NWS Internet Services Team
Disclaimer
Information Quality
Credits
Glossary
Privacy Policy
Freedom of Information Act (FOIA)
About Us
Career Opportunities